sensor_id;sensor_type;location;lat;lon;timestamp;P1;durP1;ratioP1;P2;durP2;ratioP2
4533;SDS011;2279;51.448;7.306;2023-02-13T00:02:17;30.50;;;18.00;;
4533;SDS011;2279;51.448;7.306;2023-02-13T00:04:43;30.97;;;18.10;;
4533;SDS011;2279;51.448;7.306;2023-02-13T00:07:09;30.30;;;17.33;;
4533;SDS011;2279;51.448;7.306;2023-02-13T00:09:38;33.27;;;15.47;;
4533;SDS011;2279;51.448;7.306;2023-02-13T00:12:05;30.63;;;18.37;;
4533;SDS011;2279;51.448;7.306;2023-02-13T00:14:33;25.97;;;16.87;;
4533;SDS011;2279;51.448;7.306;2023-02-13T00:16:59;30.10;;;16.57;;
4533;SDS011;2279;51.448;7.306;2023-02-13T00:19:25;30.50;;;17.40;;
4533;SDS011;2279;51.448;7.306;2023-02-13T00:21:51;34.60;;;19.03;;
4533;SDS011;2279;51.448;7.306;2023-02-13T00:24:17;25.60;;;16.50;;
4533;SDS011;2279;51.448;7.306;2023-02-13T00:26:43;26.23;;;15.80;;
4533;SDS011;2279;51.448;7.306;2023-02-13T00:29:09;24.13;;;15.97;;
4533;SDS011;2279;51.448;7.306;2023-02-13T00:31:35;25.20;;;15.10;;
4533;SDS011;2279;51.448;7.306;2023-02-13T00:34:01;28.10;;;16.70;;
4533;SDS011;2279;51.448;7.306;2023-02-13T00:36:27;23.73;;;15.07;;
4533;SDS011;2279;51.448;7.306;2023-02-13T00:38:53;23.90;;;15.83;;
4533;SDS011;2279;51.448;7.306;2023-02-13T00:41:20;29.37;;;16.80;;
4533;SDS011;2279;51.448;7.306;2023-02-13T00:43:46;32.30;;;17.60;;
4533;SDS011;2279;51.448;7.306;2023-02-13T00:46:13;24.20;;;15.10;;
4533;SDS011;2279;51.448;7.306;2023-02-13T00:48:39;34.60;;;17.90;;
4533;SDS011;2279;51.448;7.306;2023-02-13T00:51:05;26.00;;;15.83;;
4533;SDS011;2279;51.448;7.306;2023-02-13T00:53:32;29.67;;;16.20;;
4533;SDS011;2279;51.448;7.306;2023-02-13T00:55:58;24.77;;;15.03;;
4533;SDS011;2279;51.448;7.306;2023-02-13T00:58:24;25.63;;;14.83;;
4533;SDS011;2279;51.448;7.306;2023-02-13T01:00:50;24.80;;;14.27;;
4533;SDS011;2279;51.448;7.306;2023-02-13T01:03:17;26.20;;;13.70;;
4533;SDS011;2279;51.448;7.306;2023-02-13T01:05:43;23.27;;;15.10;;
4533;SDS011;2279;51.448;7.306;2023-02-13T01:08:10;23.33;;;13.60;;
4533;SDS011;2279;51.448;7.306;2023-02-13T01:10:37;19.73;;;12.13;;
4533;SDS011;2279;51.448;7.306;2023-02-13T01:13:03;16.43;;;10.63;;
4533;SDS011;2279;51.448;7.306;2023-02-13T01:15:29;18.70;;;10.90;;
4533;SDS011;2279;51.448;7.306;2023-02-13T01:17:56;14.40;;;9.20;;
4533;SDS011;2279;51.448;7.306;2023-02-13T01:20:23;13.93;;;8.43;;
4533;SDS011;2279;51.448;7.306;2023-02-13T01:22:49;10.33;;;6.20;;
4533;SDS011;2279;51.448;7.306;2023-02-13T01:25:15;14.17;;;8.80;;
4533;SDS011;2279;51.448;7.306;2023-02-13T01:27:41;11.87;;;7.57;;
4533;SDS011;2279;51.448;7.306;2023-02-13T01:30:09;11.53;;;7.40;;
4533;SDS011;2279;51.448;7.306;2023-02-13T01:32:37;15.60;;;8.00;;
4533;SDS011;2279;51.448;7.306;2023-02-13T01:35:03;11.03;;;7.70;;
4533;SDS011;2279;51.448;7.306;2023-02-13T01:37:29;9.10;;;7.03;;
4533;SDS011;2279;51.448;7.306;2023-02-13T01:39:55;12.37;;;6.83;;
4533;SDS011;2279;51.448;7.306;2023-02-13T01:42:24;9.37;;;6.07;;
4533;SDS011;2279;51.448;7.306;2023-02-13T01:47:26;9.07;;;5.97;;
4533;SDS011;2279;51.448;7.306;2023-02-13T01:50:05;9.13;;;5.60;;
4533;SDS011;2279;51.448;7.306;2023-02-13T01:52:32;6.97;;;5.03;;
4533;SDS011;2279;51.448;7.306;2023-02-13T01:54:59;8.17;;;5.10;;
4533;SDS011;2279;51.448;7.306;2023-02-13T01:57:26;7.53;;;5.50;;
4533;SDS011;2279;51.448;7.306;2023-02-13T01:59:58;6.90;;;5.10;;
4533;SDS011;2279;51.448;7.306;2023-02-13T02:02:25;7.53;;;5.23;;
4533;SDS011;2279;51.448;7.306;2023-02-13T02:04:51;7.70;;;5.20;;
4533;SDS011;2279;51.448;7.306;2023-02-13T02:07:20;7.67;;;5.10;;
4533;SDS011;2279;51.448;7.306;2023-02-13T02:09:46;7.57;;;6.00;;
4533;SDS011;2279;51.448;7.306;2023-02-13T02:12:26;10.33;;;5.63;;
4533;SDS011;2279;51.448;7.306;2023-02-13T02:14:54;6.13;;;5.00;;
4533;SDS011;2279;51.448;7.306;2023-02-13T02:17:21;5.50;;;4.73;;
4533;SDS011;2279;51.448;7.306;2023-02-13T02:24:49;7.10;;;5.33;;
4533;SDS011;2279;51.448;7.306;2023-02-13T02:27:36;7.50;;;5.37;;
4533;SDS011;2279;51.448;7.306;2023-02-13T02:32:44;7.57;;;5.20;;
4533;SDS011;2279;51.448;7.306;2023-02-13T02:43:24;7.23;;;5.20;;
4533;SDS011;2279;51.448;7.306;2023-02-13T02:48:54;7.30;;;5.00;;
4533;SDS011;2279;51.448;7.306;2023-02-13T02:57:20;8.13;;;4.87;;
4533;SDS011;2279;51.448;7.306;2023-02-13T02:59:47;10.63;;;5.53;;
4533;SDS011;2279;51.448;7.306;2023-02-13T03:02:32;8.03;;;5.77;;
4533;SDS011;2279;51.448;7.306;2023-02-13T03:05:21;7.27;;;4.80;;
4533;SDS011;2279;51.448;7.306;2023-02-13T03:08:08;8.47;;;4.63;;
4533;SDS011;2279;51.448;7.306;2023-02-13T03:10:36;6.33;;;4.73;;
4533;SDS011;2279;51.448;7.306;2023-02-13T03:16:18;7.00;;;5.40;;
4533;SDS011;2279;51.448;7.306;2023-02-13T03:19:03;5.43;;;4.87;;
4533;SDS011;2279;51.448;7.306;2023-02-13T03:21:55;10.27;;;5.83;;
4533;SDS011;2279;51.448;7.306;2023-02-13T03:27:23;6.27;;;4.97;;
4533;SDS011;2279;51.448;7.306;2023-02-13T03:41:15;6.73;;;4.90;;
4533;SDS011;2279;51.448;7.306;2023-02-13T03:46:13;8.20;;;4.40;;
4533;SDS011;2279;51.448;7.306;2023-02-13T03:48:40;5.27;;;4.53;;
4533;SDS011;2279;51.448;7.306;2023-02-13T03:51:33;4.90;;;4.07;;
4533;SDS011;2279;51.448;7.306;2023-02-13T03:54:03;5.10;;;4.60;;
4533;SDS011;2279;51.448;7.306;2023-02-13T03:56:32;4.43;;;4.03;;
4533;SDS011;2279;51.448;7.306;2023-02-13T03:59:19;5.33;;;4.23;;
4533;SDS011;2279;51.448;7.306;2023-02-13T04:02:10;6.77;;;4.70;;
4533;SDS011;2279;51.448;7.306;2023-02-13T04:07:09;3.90;;;3.50;;
4533;SDS011;2279;51.448;7.306;2023-02-13T04:09:53;7.17;;;3.70;;
4533;SDS011;2279;51.448;7.306;2023-02-13T04:12:20;6.63;;;4.63;;
4533;SDS011;2279;51.448;7.306;2023-02-13T04:17:32;7.83;;;4.47;;
4533;SDS011;2279;51.448;7.306;2023-02-13T04:20:00;5.97;;;4.70;;
4533;SDS011;2279;51.448;7.306;2023-02-13T04:22:26;6.17;;;4.23;;
4533;SDS011;2279;51.448;7.306;2023-02-13T04:24:52;5.77;;;4.37;;
4533;SDS011;2279;51.448;7.306;2023-02-13T04:27:18;7.00;;;5.43;;
4533;SDS011;2279;51.448;7.306;2023-02-13T04:29:44;6.87;;;4.80;;
4533;SDS011;2279;51.448;7.306;2023-02-13T04:32:10;8.53;;;5.50;;
4533;SDS011;2279;51.448;7.306;2023-02-13T04:34:38;7.17;;;4.93;;
4533;SDS011;2279;51.448;7.306;2023-02-13T04:37:04;7.97;;;5.10;;
4533;SDS011;2279;51.448;7.306;2023-02-13T04:39:30;6.00;;;5.40;;
4533;SDS011;2279;51.448;7.306;2023-02-13T04:41:57;7.90;;;5.40;;
4533;SDS011;2279;51.448;7.306;2023-02-13T04:44:23;6.50;;;5.17;;
4533;SDS011;2279;51.448;7.306;2023-02-13T04:46:49;7.33;;;5.20;;
4533;SDS011;2279;51.448;7.306;2023-02-13T04:49:15;8.80;;;6.00;;
4533;SDS011;2279;51.448;7.306;2023-02-13T04:51:41;9.97;;;6.77;;
4533;SDS011;2279;51.448;7.306;2023-02-13T04:54:07;6.43;;;5.67;;
4533;SDS011;2279;51.448;7.306;2023-02-13T04:56:33;8.53;;;5.87;;
4533;SDS011;2279;51.448;7.306;2023-02-13T04:58:59;8.80;;;5.73;;
4533;SDS011;2279;51.448;7.306;2023-02-13T05:01:25;10.00;;;5.40;;
4533;SDS011;2279;51.448;7.306;2023-02-13T05:03:51;6.77;;;5.37;;
4533;SDS011;2279;51.448;7.306;2023-02-13T05:06:17;7.90;;;5.47;;
4533;SDS011;2279;51.448;7.306;2023-02-13T05:08:43;11.37;;;6.50;;
4533;SDS011;2279;51.448;7.306;2023-02-13T05:11:09;15.40;;;7.27;;
4533;SDS011;2279;51.448;7.306;2023-02-13T05:13:35;9.37;;;5.77;;
4533;SDS011;2279;51.448;7.306;2023-02-13T05:16:01;10.27;;;6.77;;
4533;SDS011;2279;51.448;7.306;2023-02-13T05:18:28;14.00;;;7.00;;
4533;SDS011;2279;51.448;7.306;2023-02-13T05:20:54;10.00;;;5.93;;
4533;SDS011;2279;51.448;7.306;2023-02-13T05:23:39;12.87;;;6.90;;
4533;SDS011;2279;51.448;7.306;2023-02-13T05:26:08;11.97;;;7.40;;
4533;SDS011;2279;51.448;7.306;2023-02-13T05:28:33;11.67;;;5.93;;
4533;SDS011;2279;51.448;7.306;2023-02-13T05:31:18;10.40;;;5.90;;
4533;SDS011;2279;51.448;7.306;2023-02-13T05:33:44;9.83;;;5.70;;
4533;SDS011;2279;51.448;7.306;2023-02-13T05:36:10;10.27;;;6.13;;
4533;SDS011;2279;51.448;7.306;2023-02-13T05:38:36;9.00;;;6.20;;
4533;SDS011;2279;51.448;7.306;2023-02-13T05:41:05;9.73;;;6.23;;
4533;SDS011;2279;51.448;7.306;2023-02-13T05:43:31;10.90;;;6.70;;
4533;SDS011;2279;51.448;7.306;2023-02-13T05:46:03;13.00;;;6.77;;
4533;SDS011;2279;51.448;7.306;2023-02-13T05:48:30;11.40;;;7.37;;
4533;SDS011;2279;51.448;7.306;2023-02-13T05:50:56;14.70;;;7.27;;
4533;SDS011;2279;51.448;7.306;2023-02-13T05:53:22;9.33;;;5.70;;
4533;SDS011;2279;51.448;7.306;2023-02-13T05:55:48;11.30;;;6.90;;
4533;SDS011;2279;51.448;7.306;2023-02-13T05:58:16;9.23;;;6.60;;
4533;SDS011;2279;51.448;7.306;2023-02-13T06:00:42;9.17;;;6.23;;
4533;SDS011;2279;51.448;7.306;2023-02-13T06:03:08;10.00;;;6.60;;
4533;SDS011;2279;51.448;7.306;2023-02-13T06:05:34;12.40;;;6.53;;
4533;SDS011;2279;51.448;7.306;2023-02-13T06:07:59;12.13;;;7.07;;
4533;SDS011;2279;51.448;7.306;2023-02-13T06:10:29;12.60;;;6.63;;
4533;SDS011;2279;51.448;7.306;2023-02-13T06:12:55;10.10;;;6.30;;
4533;SDS011;2279;51.448;7.306;2023-02-13T06:15:21;10.53;;;6.97;;
4533;SDS011;2279;51.448;7.306;2023-02-13T06:17:47;13.43;;;7.07;;
4533;SDS011;2279;51.448;7.306;2023-02-13T06:20:13;12.53;;;6.70;;
4533;SDS011;2279;51.448;7.306;2023-02-13T06:22:39;11.80;;;7.37;;
4533;SDS011;2279;51.448;7.306;2023-02-13T06:25:05;11.77;;;7.23;;
4533;SDS011;2279;51.448;7.306;2023-02-13T06:27:32;11.87;;;6.40;;
4533;SDS011;2279;51.448;7.306;2023-02-13T06:29:58;13.87;;;7.43;;
4533;SDS011;2279;51.448;7.306;2023-02-13T06:32:24;13.73;;;7.53;;
4533;SDS011;2279;51.448;7.306;2023-02-13T06:34:50;11.73;;;6.10;;
4533;SDS011;2279;51.448;7.306;2023-02-13T06:37:16;16.27;;;7.20;;
4533;SDS011;2279;51.448;7.306;2023-02-13T06:39:42;12.90;;;7.33;;
4533;SDS011;2279;51.448;7.306;2023-02-13T06:42:09;9.97;;;7.30;;
4533;SDS011;2279;51.448;7.306;2023-02-13T06:44:38;11.33;;;7.17;;
4533;SDS011;2279;51.448;7.306;2023-02-13T06:47:04;17.03;;;8.90;;
4533;SDS011;2279;51.448;7.306;2023-02-13T06:49:30;11.03;;;7.53;;
4533;SDS011;2279;51.448;7.306;2023-02-13T06:51:56;12.97;;;7.50;;
4533;SDS011;2279;51.448;7.306;2023-02-13T06:54:22;11.80;;;7.27;;
4533;SDS011;2279;51.448;7.306;2023-02-13T06:56:47;12.23;;;6.80;;
4533;SDS011;2279;51.448;7.306;2023-02-13T06:59:13;13.70;;;7.40;;
4533;SDS011;2279;51.448;7.306;2023-02-13T07:01:39;15.50;;;8.17;;
4533;SDS011;2279;51.448;7.306;2023-02-13T07:04:05;13.77;;;8.00;;
4533;SDS011;2279;51.448;7.306;2023-02-13T07:06:31;12.20;;;7.60;;
4533;SDS011;2279;51.448;7.306;2023-02-13T07:08:57;12.23;;;7.50;;
4533;SDS011;2279;51.448;7.306;2023-02-13T07:11:24;12.23;;;8.07;;
4533;SDS011;2279;51.448;7.306;2023-02-13T07:13:51;15.47;;;8.80;;
4533;SDS011;2279;51.448;7.306;2023-02-13T07:16:20;14.00;;;7.90;;
4533;SDS011;2279;51.448;7.306;2023-02-13T07:18:46;15.70;;;8.50;;
4533;SDS011;2279;51.448;7.306;2023-02-13T07:21:12;19.03;;;8.37;;
4533;SDS011;2279;51.448;7.306;2023-02-13T07:23:38;14.97;;;8.67;;
4533;SDS011;2279;51.448;7.306;2023-02-13T07:26:04;13.87;;;8.40;;
4533;SDS011;2279;51.448;7.306;2023-02-13T07:31:31;13.40;;;7.80;;
4533;SDS011;2279;51.448;7.306;2023-02-13T07:33:57;15.63;;;7.87;;
4533;SDS011;2279;51.448;7.306;2023-02-13T07:36:24;23.00;;;8.80;;
4533;SDS011;2279;51.448;7.306;2023-02-13T07:38:50;12.57;;;8.03;;
4533;SDS011;2279;51.448;7.306;2023-02-13T07:41:16;10.73;;;7.53;;
4533;SDS011;2279;51.448;7.306;2023-02-13T07:43:42;12.77;;;7.80;;
4533;SDS011;2279;51.448;7.306;2023-02-13T07:46:08;12.00;;;7.47;;
4533;SDS011;2279;51.448;7.306;2023-02-13T07:48:34;14.50;;;8.90;;
4533;SDS011;2279;51.448;7.306;2023-02-13T07:51:01;10.93;;;7.63;;
4533;SDS011;2279;51.448;7.306;2023-02-13T07:53:27;13.17;;;8.63;;
4533;SDS011;2279;51.448;7.306;2023-02-13T07:55:53;12.77;;;7.27;;
4533;SDS011;2279;51.448;7.306;2023-02-13T07:58:19;10.23;;;7.57;;
4533;SDS011;2279;51.448;7.306;2023-02-13T08:00:45;12.10;;;7.40;;
4533;SDS011;2279;51.448;7.306;2023-02-13T08:03:11;10.40;;;6.20;;
4533;SDS011;2279;51.448;7.306;2023-02-13T08:05:37;12.93;;;6.53;;
4533;SDS011;2279;51.448;7.306;2023-02-13T08:08:03;11.13;;;6.27;;
4533;SDS011;2279;51.448;7.306;2023-02-13T08:10:29;9.13;;;6.43;;
4533;SDS011;2279;51.448;7.306;2023-02-13T08:13:13;9.43;;;6.30;;
4533;SDS011;2279;51.448;7.306;2023-02-13T08:15:40;13.30;;;8.60;;
4533;SDS011;2279;51.448;7.306;2023-02-13T08:18:08;10.87;;;6.60;;
4533;SDS011;2279;51.448;7.306;2023-02-13T08:20:34;7.67;;;6.07;;
4533;SDS011;2279;51.448;7.306;2023-02-13T08:23:04;8.80;;;6.43;;
4533;SDS011;2279;51.448;7.306;2023-02-13T08:25:30;9.90;;;6.53;;
4533;SDS011;2279;51.448;7.306;2023-02-13T08:27:57;10.10;;;6.30;;
4533;SDS011;2279;51.448;7.306;2023-02-13T08:30:23;9.00;;;6.73;;
4533;SDS011;2279;51.448;7.306;2023-02-13T08:32:49;12.20;;;7.87;;
4533;SDS011;2279;51.448;7.306;2023-02-13T08:35:15;7.13;;;5.50;;
4533;SDS011;2279;51.448;7.306;2023-02-13T08:37:41;10.80;;;6.10;;
4533;SDS011;2279;51.448;7.306;2023-02-13T08:40:07;8.33;;;6.00;;
4533;SDS011;2279;51.448;7.306;2023-02-13T08:42:36;8.13;;;6.03;;
4533;SDS011;2279;51.448;7.306;2023-02-13T08:45:03;7.63;;;5.53;;
4533;SDS011;2279;51.448;7.306;2023-02-13T08:47:29;8.47;;;6.90;;
4533;SDS011;2279;51.448;7.306;2023-02-13T08:49:55;8.77;;;6.10;;
4533;SDS011;2279;51.448;7.306;2023-02-13T08:52:21;9.27;;;6.43;;
4533;SDS011;2279;51.448;7.306;2023-02-13T08:54:47;8.50;;;5.70;;
4533;SDS011;2279;51.448;7.306;2023-02-13T08:57:13;10.30;;;5.43;;
4533;SDS011;2279;51.448;7.306;2023-02-13T08:59:39;6.60;;;5.17;;
4533;SDS011;2279;51.448;7.306;2023-02-13T09:02:05;8.30;;;6.33;;
4533;SDS011;2279;51.448;7.306;2023-02-13T09:04:31;6.33;;;5.00;;
4533;SDS011;2279;51.448;7.306;2023-02-13T09:06:58;6.93;;;5.27;;
4533;SDS011;2279;51.448;7.306;2023-02-13T09:09:24;6.67;;;5.80;;
4533;SDS011;2279;51.448;7.306;2023-02-13T09:11:50;6.57;;;5.30;;
4533;SDS011;2279;51.448;7.306;2023-02-13T09:14:17;5.93;;;4.93;;
4533;SDS011;2279;51.448;7.306;2023-02-13T09:16:43;9.63;;;6.00;;
4533;SDS011;2279;51.448;7.306;2023-02-13T09:19:09;9.40;;;6.60;;
4533;SDS011;2279;51.448;7.306;2023-02-13T09:21:35;12.20;;;6.33;;
4533;SDS011;2279;51.448;7.306;2023-02-13T09:24:01;6.77;;;5.27;;
4533;SDS011;2279;51.448;7.306;2023-02-13T09:26:27;6.90;;;4.67;;
4533;SDS011;2279;51.448;7.306;2023-02-13T09:28:53;8.80;;;5.60;;
4533;SDS011;2279;51.448;7.306;2023-02-13T09:31:19;11.40;;;6.50;;
4533;SDS011;2279;51.448;7.306;2023-02-13T09:33:46;10.20;;;6.20;;
4533;SDS011;2279;51.448;7.306;2023-02-13T09:36:13;7.30;;;5.97;;
4533;SDS011;2279;51.448;7.306;2023-02-13T09:38:40;7.23;;;6.33;;
4533;SDS011;2279;51.448;7.306;2023-02-13T09:41:13;6.77;;;5.90;;
4533;SDS011;2279;51.448;7.306;2023-02-13T09:43:41;8.13;;;5.67;;
4533;SDS011;2279;51.448;7.306;2023-02-13T09:46:50;7.93;;;5.87;;
4533;SDS011;2279;51.448;7.306;2023-02-13T09:48:58;6.90;;;5.13;;
4533;SDS011;2279;51.448;7.306;2023-02-13T09:51:24;6.50;;;5.70;;
4533;SDS011;2279;51.448;7.306;2023-02-13T09:53:54;7.97;;;6.20;;
4533;SDS011;2279;51.448;7.306;2023-02-13T09:59:14;10.20;;;5.80;;
4533;SDS011;2279;51.448;7.306;2023-02-13T10:01:43;6.60;;;5.20;;
4533;SDS011;2279;51.448;7.306;2023-02-13T10:04:20;5.40;;;4.90;;
4533;SDS011;2279;51.448;7.306;2023-02-13T10:06:49;5.73;;;4.87;;
4533;SDS011;2279;51.448;7.306;2023-02-13T10:09:29;6.60;;;5.27;;
4533;SDS011;2279;51.448;7.306;2023-02-13T10:12:12;6.40;;;5.40;;
4533;SDS011;2279;51.448;7.306;2023-02-13T10:17:23;6.53;;;5.70;;
4533;SDS011;2279;51.448;7.306;2023-02-13T10:22:33;6.07;;;5.10;;
4533;SDS011;2279;51.448;7.306;2023-02-13T10:25:02;7.00;;;5.87;;
4533;SDS011;2279;51.448;7.306;2023-02-13T10:27:34;7.40;;;5.97;;
4533;SDS011;2279;51.448;7.306;2023-02-13T10:37:46;6.67;;;5.13;;
4533;SDS011;2279;51.448;7.306;2023-02-13T10:40:15;6.40;;;5.50;;
4533;SDS011;2279;51.448;7.306;2023-02-13T10:42:45;8.40;;;6.30;;
4533;SDS011;2279;51.448;7.306;2023-02-13T10:51:23;6.67;;;6.00;;
4533;SDS011;2279;51.448;7.306;2023-02-13T10:53:20;8.60;;;6.10;;
4533;SDS011;2279;51.448;7.306;2023-02-13T10:58:17;6.73;;;6.03;;
4533;SDS011;2279;51.448;7.306;2023-02-13T11:03:20;8.87;;;6.03;;
4533;SDS011;2279;51.448;7.306;2023-02-13T11:05:46;8.20;;;5.97;;
4533;SDS011;2279;51.448;7.306;2023-02-13T11:08:15;7.80;;;5.20;;
4533;SDS011;2279;51.448;7.306;2023-02-13T11:10:42;7.43;;;5.80;;
4533;SDS011;2279;51.448;7.306;2023-02-13T11:13:15;7.67;;;5.63;;
4533;SDS011;2279;51.448;7.306;2023-02-13T11:15:41;6.50;;;5.53;;
4533;SDS011;2279;51.448;7.306;2023-02-13T11:18:13;5.43;;;4.87;;
4533;SDS011;2279;51.448;7.306;2023-02-13T11:20:43;8.87;;;6.20;;
4533;SDS011;2279;51.448;7.306;2023-02-13T11:25:40;7.20;;;6.00;;
4533;SDS011;2279;51.448;7.306;2023-02-13T11:28:12;10.53;;;6.10;;
4533;SDS011;2279;51.448;7.306;2023-02-13T11:30:43;9.63;;;5.93;;
4533;SDS011;2279;51.448;7.306;2023-02-13T11:33:26;7.30;;;5.60;;
4533;SDS011;2279;51.448;7.306;2023-02-13T11:36:05;6.70;;;5.70;;
4533;SDS011;2279;51.448;7.306;2023-02-13T11:38:32;5.73;;;5.07;;
4533;SDS011;2279;51.448;7.306;2023-02-13T11:41:05;7.90;;;5.80;;
4533;SDS011;2279;51.448;7.306;2023-02-13T11:43:48;5.97;;;5.37;;
4533;SDS011;2279;51.448;7.306;2023-02-13T11:46:22;6.50;;;4.70;;
4533;SDS011;2279;51.448;7.306;2023-02-13T11:48:55;5.13;;;4.63;;
4533;SDS011;2279;51.448;7.306;2023-02-13T11:51:33;6.57;;;5.63;;
4533;SDS011;2279;51.448;7.306;2023-02-13T11:53:59;6.87;;;5.87;;
4533;SDS011;2279;51.448;7.306;2023-02-13T11:56:26;7.03;;;5.07;;
4533;SDS011;2279;51.448;7.306;2023-02-13T11:59:00;9.80;;;6.43;;
4533;SDS011;2279;51.448;7.306;2023-02-13T12:01:26;10.73;;;5.13;;
4533;SDS011;2279;51.448;7.306;2023-02-13T12:04:01;9.40;;;6.10;;
4533;SDS011;2279;51.448;7.306;2023-02-13T12:06:27;5.80;;;5.20;;
4533;SDS011;2279;51.448;7.306;2023-02-13T12:08:53;8.80;;;5.77;;
4533;SDS011;2279;51.448;7.306;2023-02-13T12:11:21;5.80;;;4.60;;
4533;SDS011;2279;51.448;7.306;2023-02-13T12:13:48;6.30;;;4.77;;
4533;SDS011;2279;51.448;7.306;2023-02-13T12:16:20;6.40;;;5.30;;
4533;SDS011;2279;51.448;7.306;2023-02-13T12:18:50;9.10;;;5.80;;
4533;SDS011;2279;51.448;7.306;2023-02-13T12:21:24;7.43;;;4.90;;
4533;SDS011;2279;51.448;7.306;2023-02-13T12:26:44;5.90;;;5.30;;
4533;SDS011;2279;51.448;7.306;2023-02-13T12:39:33;6.37;;;5.00;;
4533;SDS011;2279;51.448;7.306;2023-02-13T12:47:26;6.77;;;5.57;;
4533;SDS011;2279;51.448;7.306;2023-02-13T12:49:57;8.70;;;5.70;;
4533;SDS011;2279;51.448;7.306;2023-02-13T12:52:32;7.90;;;4.90;;
4533;SDS011;2279;51.448;7.306;2023-02-13T12:57:51;7.20;;;5.80;;
4533;SDS011;2279;51.448;7.306;2023-02-13T13:10:25;5.57;;;4.60;;
4533;SDS011;2279;51.448;7.306;2023-02-13T13:13:20;6.23;;;4.60;;
4533;SDS011;2279;51.448;7.306;2023-02-13T13:16:04;8.13;;;6.37;;
4533;SDS011;2279;51.448;7.306;2023-02-13T13:18:37;7.30;;;5.80;;
4533;SDS011;2279;51.448;7.306;2023-02-13T13:28:59;8.50;;;5.00;;
4533;SDS011;2279;51.448;7.306;2023-02-13T13:31:26;6.00;;;4.30;;
4533;SDS011;2279;51.448;7.306;2023-02-13T13:33:53;5.27;;;4.33;;
4533;SDS011;2279;51.448;7.306;2023-02-13T13:36:32;10.10;;;5.33;;
4533;SDS011;2279;51.448;7.306;2023-02-13T13:39:05;8.50;;;4.93;;
4533;SDS011;2279;51.448;7.306;2023-02-13T13:41:41;7.47;;;5.17;;
4533;SDS011;2279;51.448;7.306;2023-02-13T13:44:19;5.40;;;4.90;;
4533;SDS011;2279;51.448;7.306;2023-02-13T13:52:18;5.53;;;4.87;;
4533;SDS011;2279;51.448;7.306;2023-02-13T13:54:44;7.40;;;5.53;;
4533;SDS011;2279;51.448;7.306;2023-02-13T13:57:15;8.03;;;4.67;;
4533;SDS011;2279;51.448;7.306;2023-02-13T14:07:14;6.63;;;4.60;;
4533;SDS011;2279;51.448;7.306;2023-02-13T14:09:41;4.53;;;4.13;;
4533;SDS011;2279;51.448;7.306;2023-02-13T14:14:49;5.50;;;4.93;;
4533;SDS011;2279;51.448;7.306;2023-02-13T14:17:16;6.90;;;4.00;;
4533;SDS011;2279;51.448;7.306;2023-02-13T14:20:14;5.13;;;4.60;;
4533;SDS011;2279;51.448;7.306;2023-02-13T14:22:41;6.20;;;5.07;;
4533;SDS011;2279;51.448;7.306;2023-02-13T14:25:22;4.87;;;4.47;;
4533;SDS011;2279;51.448;7.306;2023-02-13T14:27:55;6.40;;;5.80;;
4533;SDS011;2279;51.448;7.306;2023-02-13T14:30:25;7.07;;;5.33;;
4533;SDS011;2279;51.448;7.306;2023-02-13T14:32:52;5.80;;;4.97;;
4533;SDS011;2279;51.448;7.306;2023-02-13T14:35:22;8.93;;;5.30;;
4533;SDS011;2279;51.448;7.306;2023-02-13T14:37:59;6.63;;;4.60;;
4533;SDS011;2279;51.448;7.306;2023-02-13T14:40:43;7.07;;;4.50;;
4533;SDS011;2279;51.448;7.306;2023-02-13T14:43:27;5.70;;;5.10;;
4533;SDS011;2279;51.448;7.306;2023-02-13T14:48:30;5.83;;;4.47;;
4533;SDS011;2279;51.448;7.306;2023-02-13T14:50:58;6.93;;;4.87;;
4533;SDS011;2279;51.448;7.306;2023-02-13T14:56:11;6.47;;;4.50;;
4533;SDS011;2279;51.448;7.306;2023-02-13T14:58:41;7.93;;;5.67;;
4533;SDS011;2279;51.448;7.306;2023-02-13T15:01:27;7.07;;;4.50;;
4533;SDS011;2279;51.448;7.306;2023-02-13T15:03:56;5.10;;;4.20;;
4533;SDS011;2279;51.448;7.306;2023-02-13T15:06:30;6.57;;;5.20;;
4533;SDS011;2279;51.448;7.306;2023-02-13T15:09:02;6.20;;;5.47;;
4533;SDS011;2279;51.448;7.306;2023-02-13T15:11:33;8.00;;;5.00;;
4533;SDS011;2279;51.448;7.306;2023-02-13T15:14:20;6.47;;;4.90;;
4533;SDS011;2279;51.448;7.306;2023-02-13T15:16:50;5.50;;;5.00;;
4533;SDS011;2279;51.448;7.306;2023-02-13T15:19:18;6.70;;;5.40;;
4533;SDS011;2279;51.448;7.306;2023-02-13T15:21:51;7.00;;;5.57;;
4533;SDS011;2279;51.448;7.306;2023-02-13T15:24:18;5.30;;;4.80;;
4533;SDS011;2279;51.448;7.306;2023-02-13T15:26:54;7.67;;;6.17;;
4533;SDS011;2279;51.448;7.306;2023-02-13T15:29:22;6.10;;;5.23;;
4533;SDS011;2279;51.448;7.306;2023-02-13T15:31:47;5.13;;;4.63;;
4533;SDS011;2279;51.448;7.306;2023-02-13T15:34:21;10.80;;;8.70;;
4533;SDS011;2279;51.448;7.306;2023-02-13T15:36:48;5.77;;;5.13;;
4533;SDS011;2279;51.448;7.306;2023-02-13T15:39:15;6.60;;;5.37;;
4533;SDS011;2279;51.448;7.306;2023-02-13T15:41:43;9.13;;;5.30;;
4533;SDS011;2279;51.448;7.306;2023-02-13T15:44:17;10.10;;;5.90;;
4533;SDS011;2279;51.448;7.306;2023-02-13T15:46:45;6.53;;;5.70;;
4533;SDS011;2279;51.448;7.306;2023-02-13T15:49:15;6.40;;;5.33;;
4533;SDS011;2279;51.448;7.306;2023-02-13T15:51:41;6.37;;;5.37;;
4533;SDS011;2279;51.448;7.306;2023-02-13T15:56:49;7.37;;;5.43;;
4533;SDS011;2279;51.448;7.306;2023-02-13T15:59:15;6.53;;;5.37;;
4533;SDS011;2279;51.448;7.306;2023-02-13T16:01:43;7.50;;;5.13;;
4533;SDS011;2279;51.448;7.306;2023-02-13T16:04:10;6.17;;;5.57;;
4533;SDS011;2279;51.448;7.306;2023-02-13T16:06:37;13.03;;;5.20;;
4533;SDS011;2279;51.448;7.306;2023-02-13T16:09:03;6.90;;;4.97;;
4533;SDS011;2279;51.448;7.306;2023-02-13T16:11:33;7.30;;;4.80;;
4533;SDS011;2279;51.448;7.306;2023-02-13T16:16:31;6.43;;;5.50;;
4533;SDS011;2279;51.448;7.306;2023-02-13T16:18:58;7.10;;;5.83;;
4533;SDS011;2279;51.448;7.306;2023-02-13T16:21:25;8.20;;;5.40;;
4533;SDS011;2279;51.448;7.306;2023-02-13T16:23:54;6.33;;;5.50;;
4533;SDS011;2279;51.448;7.306;2023-02-13T16:26:22;8.37;;;5.33;;
4533;SDS011;2279;51.448;7.306;2023-02-13T16:28:48;8.27;;;5.83;;
4533;SDS011;2279;51.448;7.306;2023-02-13T16:31:14;5.40;;;4.77;;
4533;SDS011;2279;51.448;7.306;2023-02-13T16:33:42;6.57;;;5.17;;
4533;SDS011;2279;51.448;7.306;2023-02-13T16:41:01;6.80;;;6.00;;
4533;SDS011;2279;51.448;7.306;2023-02-13T16:43:46;8.80;;;6.00;;
4533;SDS011;2279;51.448;7.306;2023-02-13T16:46:15;12.13;;;5.63;;
4533;SDS011;2279;51.448;7.306;2023-02-13T16:52:05;9.53;;;6.50;;
4533;SDS011;2279;51.448;7.306;2023-02-13T17:01:37;8.17;;;5.90;;
4533;SDS011;2279;51.448;7.306;2023-02-13T17:04:09;11.33;;;7.20;;
4533;SDS011;2279;51.448;7.306;2023-02-13T17:06:40;10.47;;;6.87;;
4533;SDS011;2279;51.448;7.306;2023-02-13T17:09:06;12.57;;;6.30;;
4533;SDS011;2279;51.448;7.306;2023-02-13T17:11:32;11.10;;;8.70;;
4533;SDS011;2279;51.448;7.306;2023-02-13T17:13:57;11.83;;;7.27;;
4533;SDS011;2279;51.448;7.306;2023-02-13T17:16:23;12.53;;;8.97;;
4533;SDS011;2279;51.448;7.306;2023-02-13T17:18:49;11.77;;;9.57;;
4533;SDS011;2279;51.448;7.306;2023-02-13T17:21:15;11.20;;;7.10;;
4533;SDS011;2279;51.448;7.306;2023-02-13T17:23:41;9.27;;;6.83;;
4533;SDS011;2279;51.448;7.306;2023-02-13T17:26:07;9.85;;;6.50;;
4533;SDS011;2279;51.448;7.306;2023-02-13T17:28:33;10.60;;;7.90;;
4533;SDS011;2279;51.448;7.306;2023-02-13T17:30:59;7.70;;;6.07;;
4533;SDS011;2279;51.448;7.306;2023-02-13T17:33:29;14.17;;;6.20;;
4533;SDS011;2279;51.448;7.306;2023-02-13T17:35:55;7.10;;;6.20;;
4533;SDS011;2279;51.448;7.306;2023-02-13T17:38:21;8.87;;;6.43;;
4533;SDS011;2279;51.448;7.306;2023-02-13T17:40:48;6.90;;;6.20;;
4533;SDS011;2279;51.448;7.306;2023-02-13T17:43:14;6.80;;;6.13;;
4533;SDS011;2279;51.448;7.306;2023-02-13T17:45:41;9.93;;;6.37;;
4533;SDS011;2279;51.448;7.306;2023-02-13T17:48:07;9.93;;;6.80;;
4533;SDS011;2279;51.448;7.306;2023-02-13T17:50:33;6.40;;;5.67;;
4533;SDS011;2279;51.448;7.306;2023-02-13T17:53:03;10.73;;;6.37;;
4533;SDS011;2279;51.448;7.306;2023-02-13T17:55:29;9.77;;;8.10;;
4533;SDS011;2279;51.448;7.306;2023-02-13T17:57:56;8.23;;;7.43;;
4533;SDS011;2279;51.448;7.306;2023-02-13T18:00:23;13.13;;;8.40;;
4533;SDS011;2279;51.448;7.306;2023-02-13T18:02:51;8.97;;;7.77;;
4533;SDS011;2279;51.448;7.306;2023-02-13T18:05:17;12.27;;;8.07;;
4533;SDS011;2279;51.448;7.306;2023-02-13T18:07:43;12.73;;;9.23;;